createdAt,value
2024-03-28T00:00:12.798Z,112.11
2024-03-28T00:01:12.924Z,111.29
2024-03-28T00:02:13.103Z,111.27
2024-03-28T00:03:13.273Z,111.25
2024-03-28T00:04:13.450Z,111.81
2024-03-28T00:55:46.670Z,112.29
2024-03-28T00:56:18.681Z,113.85
2024-03-28T00:57:18.763Z,127.63
2024-03-28T00:58:18.907Z,148.93
2024-03-28T00:59:18.930Z,176.98
2024-03-28T01:00:19.034Z,205.41
2024-03-28T01:01:19.120Z,211.30
2024-03-28T01:02:19.227Z,197.27
2024-03-28T01:03:19.338Z,187.90
2024-03-28T01:04:19.431Z,181.46
2024-03-28T01:05:19.537Z,174.56
2024-03-28T01:06:19.646Z,170.07
2024-03-28T01:07:19.733Z,165.23
2024-03-28T01:08:19.833Z,161.51
2024-03-28T01:09:19.935Z,158.27
2024-03-28T01:10:20.037Z,155.73
2024-03-28T01:11:20.171Z,152.89
2024-03-28T01:12:20.289Z,151.03
2024-03-28T01:13:20.406Z,148.73
2024-03-28T01:14:20.563Z,147.68
2024-03-28T01:15:20.692Z,149.21
2024-03-28T01:16:20.875Z,149.59
2024-03-28T01:17:21.027Z,152.98
2024-03-28T01:18:21.179Z,152.47
2024-03-28T01:19:21.333Z,153.34
2024-03-28T01:20:21.496Z,155.62
2024-03-28T01:21:21.662Z,156.71
2024-03-28T01:22:21.827Z,154.06
2024-03-28T01:23:21.972Z,152.14
2024-03-28T01:24:22.104Z,151.70
2024-03-28T01:25:22.271Z,152.02
2024-03-28T01:26:22.441Z,150.32
2024-03-28T01:27:22.653Z,149.79
2024-03-28T01:28:22.722Z,148.38
2024-03-28T01:29:22.892Z,146.79
2024-03-28T01:30:23.039Z,143.16
2024-03-28T01:31:23.204Z,142.12
2024-03-28T01:32:23.463Z,141.76
2024-03-28T01:33:23.510Z,142.14
2024-03-28T01:34:23.670Z,140.68
2024-03-28T01:35:23.842Z,138.09
2024-03-28T01:36:23.994Z,136.20
2024-03-28T01:37:24.191Z,134.42
2024-03-28T01:38:24.297Z,133.07
2024-03-28T01:39:24.412Z,131.94
2024-03-28T01:40:24.537Z,130.05
2024-03-28T01:41:24.657Z,130.15
2024-03-28T01:42:24.837Z,130.69
2024-03-28T01:43:24.890Z,131.09
2024-03-28T01:44:25.032Z,131.39
2024-03-28T01:45:25.137Z,131.84
2024-03-28T01:46:40.216Z,132.20
2024-03-28T01:47:41.988Z,132.26
2024-03-28T01:48:25.421Z,132.34
2024-03-28T01:49:25.503Z,132.87
2024-03-28T01:50:25.562Z,133.71
2024-03-28T01:51:25.659Z,133.83
2024-03-28T01:52:25.730Z,134.17
2024-03-28T01:53:25.838Z,135.96
2024-03-28T01:54:25.901Z,136.30
2024-03-28T01:55:25.989Z,136.94
2024-03-28T01:56:26.068Z,137.72
2024-03-28T01:57:26.174Z,137.77
2024-03-28T01:58:26.254Z,138.30
2024-03-28T01:59:26.326Z,138.07
2024-03-28T02:00:26.408Z,137.57
2024-03-28T02:01:26.508Z,135.27
2024-03-28T02:02:26.586Z,134.46
2024-03-28T02:03:26.670Z,134.21
2024-03-28T02:04:26.755Z,133.44
2024-03-28T02:05:26.831Z,129.83
2024-03-28T02:06:26.922Z,127.76
2024-03-28T02:07:27.010Z,126.93
2024-03-28T02:08:27.105Z,127.65
2024-03-28T02:09:27.205Z,129.38
2024-03-28T02:10:27.293Z,129.52
2024-03-28T02:11:27.399Z,129.41
2024-03-28T02:12:28.050Z,130.20
2024-03-28T02:13:27.615Z,130.31
2024-03-28T02:14:27.721Z,130.67
2024-03-28T02:15:27.806Z,131.04
2024-03-28T02:16:27.884Z,130.18
2024-03-28T02:17:28.026Z,131.39
2024-03-28T02:18:28.100Z,131.27
2024-03-28T02:19:28.162Z,129.86
2024-03-28T02:20:28.254Z,131.18
2024-03-28T02:21:28.334Z,130.41
2024-03-28T02:22:28.467Z,129.01
2024-03-28T02:23:28.653Z,129.71
2024-03-28T02:24:28.773Z,129.59
2024-03-28T02:25:28.936Z,128.41
2024-03-28T02:26:29.073Z,127.80
2024-03-28T02:27:29.226Z,126.59
2024-03-28T02:28:29.389Z,125.52
2024-03-28T02:29:29.528Z,124.59
2024-03-28T02:30:29.698Z,124.65
2024-03-28T02:31:29.831Z,124.82
2024-03-28T02:32:29.996Z,124.86
2024-03-28T02:33:30.149Z,126.03
2024-03-28T02:34:30.295Z,128.46
2024-03-28T02:35:30.454Z,128.23
2024-03-28T02:36:30.630Z,129.61
2024-03-28T02:37:30.751Z,129.35
2024-03-28T02:38:30.874Z,128.79
2024-03-28T02:39:30.988Z,128.28
2024-03-28T02:40:31.104Z,127.74
2024-03-28T02:41:31.222Z,126.88
2024-03-28T02:42:32.046Z,127.16
2024-03-28T02:43:31.439Z,127.54
2024-03-28T02:44:31.589Z,128.93
2024-03-28T02:45:31.748Z,131.04
2024-03-28T02:46:32.095Z,133.21
2024-03-28T02:47:32.115Z,134.24
2024-03-28T02:48:32.277Z,135.09
2024-03-28T02:49:32.445Z,137.08
2024-03-28T02:50:32.583Z,138.38
2024-03-28T02:51:32.794Z,140.15
2024-03-28T02:52:32.886Z,140.95
2024-03-28T02:53:33.039Z,141.38
2024-03-28T02:54:33.212Z,143.34
2024-03-28T02:55:33.342Z,144.32
2024-03-28T02:56:33.458Z,144.92
2024-03-28T02:57:33.577Z,145.79
2024-03-28T02:58:33.725Z,147.64
2024-03-28T02:59:33.839Z,149.11
2024-03-28T03:00:33.960Z,151.14
2024-03-28T03:01:34.149Z,152.26
2024-03-28T03:02:34.337Z,154.75
2024-03-28T03:03:34.505Z,156.13
2024-03-28T03:04:34.651Z,156.49
2024-03-28T03:05:34.835Z,157.90
2024-03-28T03:06:34.990Z,157.87
2024-03-28T03:07:35.213Z,158.51
2024-03-28T03:08:35.298Z,157.99
2024-03-28T03:09:35.467Z,159.01
2024-03-28T03:10:35.638Z,157.17
2024-03-28T03:11:35.768Z,156.39
2024-03-28T03:12:35.923Z,155.90
2024-03-28T03:13:36.085Z,156.18
2024-03-28T03:14:36.242Z,155.78
2024-03-28T03:15:36.412Z,154.94
2024-03-28T03:16:36.560Z,154.00
2024-03-28T03:17:36.722Z,154.16
2024-03-28T03:18:36.910Z,155.01
2024-03-28T03:19:37.024Z,154.42
2024-03-28T03:20:37.179Z,153.53
2024-03-28T03:21:37.282Z,153.59
2024-03-28T03:22:37.410Z,153.21
2024-03-28T03:23:37.538Z,154.25
2024-03-28T03:24:37.659Z,155.38
2024-03-28T03:25:37.781Z,156.08
2024-03-28T03:26:37.898Z,157.00
2024-03-28T03:27:38.026Z,157.67
2024-03-28T03:28:38.166Z,158.41
2024-03-28T03:29:38.311Z,159.84
2024-03-28T03:30:38.443Z,158.41
2024-03-28T03:31:38.584Z,158.25
2024-03-28T03:32:38.729Z,159.24
2024-03-28T03:33:38.862Z,159.54
2024-03-28T03:34:39.011Z,160.29
2024-03-28T03:35:39.119Z,161.22
2024-03-28T03:36:39.240Z,161.15
2024-03-28T03:37:39.374Z,161.43
2024-03-28T03:38:39.497Z,161.80
2024-03-28T03:39:39.612Z,162.33
2024-03-28T03:40:39.734Z,164.26
2024-03-28T03:41:39.847Z,165.98
2024-03-28T03:42:39.982Z,167.09
2024-03-28T03:43:40.073Z,167.90
2024-03-28T03:44:40.201Z,168.57
2024-03-28T03:45:40.320Z,169.38
2024-03-28T03:46:40.453Z,170.01
2024-03-28T03:47:40.569Z,172.50
2024-03-28T03:48:40.696Z,174.64
2024-03-28T03:49:40.822Z,176.45
2024-03-28T03:50:40.962Z,178.71
2024-03-28T03:51:41.072Z,180.64
2024-03-28T03:52:41.184Z,181.55
2024-03-28T03:53:41.290Z,181.63
2024-03-28T03:54:41.400Z,182.25
2024-03-28T03:55:41.509Z,183.37
2024-03-28T03:56:41.604Z,184.75
2024-03-28T03:57:41.705Z,186.11
2024-03-28T03:58:41.801Z,187.00
2024-03-28T03:59:41.903Z,189.70
2024-03-28T04:00:42.005Z,190.69
2024-03-28T04:01:42.106Z,191.87
2024-03-28T04:02:42.204Z,192.34
2024-03-28T04:03:42.300Z,193.42
2024-03-28T04:04:42.410Z,194.37
2024-03-28T04:05:42.519Z,195.04
2024-03-28T04:06:42.614Z,196.11
2024-03-28T04:07:42.709Z,196.12
2024-03-28T04:08:42.799Z,196.22
2024-03-28T04:09:42.902Z,194.40
2024-03-28T04:10:42.998Z,192.75
2024-03-28T04:11:43.116Z,190.80
2024-03-28T04:12:43.181Z,188.14
2024-03-28T04:13:43.293Z,186.38
2024-03-28T04:14:46.828Z,184.93
2024-03-28T04:15:43.466Z,184.96
2024-03-28T04:16:43.555Z,185.00
2024-03-28T04:17:43.645Z,184.52
2024-03-28T04:18:43.721Z,183.67
2024-03-28T04:19:43.809Z,183.81
2024-03-28T04:20:43.874Z,184.15
2024-03-28T04:21:43.991Z,183.98
2024-03-28T04:22:44.060Z,183.47
2024-03-28T04:23:44.137Z,183.33
2024-03-28T04:24:44.225Z,183.45
2024-03-28T04:25:44.299Z,183.94
2024-03-28T04:26:44.393Z,184.85
2024-03-28T04:27:44.489Z,186.42
2024-03-28T04:28:44.553Z,188.39
2024-03-28T04:29:52.424Z,192.91
2024-03-28T04:30:44.738Z,193.03
2024-03-28T04:31:44.827Z,193.88
2024-03-28T04:32:44.909Z,196.23
2024-03-28T04:33:44.998Z,199.46
2024-03-28T04:34:45.084Z,201.42
2024-03-28T04:35:45.175Z,198.25
2024-03-28T04:36:45.270Z,195.25
2024-03-28T04:37:45.363Z,193.44
2024-03-28T04:38:45.464Z,193.35
2024-03-28T04:39:45.537Z,191.72
2024-03-28T04:40:45.626Z,191.17
2024-03-28T04:41:45.707Z,190.76
2024-03-28T04:42:45.783Z,191.97
2024-03-28T04:43:45.868Z,192.02
2024-03-28T04:44:45.952Z,191.19
2024-03-28T04:45:46.044Z,190.92
2024-03-28T04:46:46.132Z,190.46
2024-03-28T04:47:46.219Z,189.05
2024-03-28T04:48:46.287Z,188.38
2024-03-28T04:49:46.374Z,187.45
2024-03-28T04:50:46.472Z,187.12
2024-03-28T04:51:46.563Z,187.65
2024-03-28T04:52:46.652Z,187.64
2024-03-28T04:53:46.758Z,187.97
2024-03-28T04:54:46.848Z,187.60
2024-03-28T04:55:46.941Z,188.43
2024-03-28T04:56:47.027Z,188.04
2024-03-28T04:57:47.575Z,187.48
2024-03-28T04:58:47.231Z,187.20
2024-03-28T04:59:47.320Z,186.04
2024-03-28T05:00:47.404Z,185.18
2024-03-28T05:01:47.560Z,184.21
2024-03-28T05:02:47.731Z,184.40
2024-03-28T05:03:47.890Z,184.57
2024-03-28T05:04:48.076Z,183.67
2024-03-28T05:05:48.204Z,180.98
2024-03-28T05:06:55.617Z,50.00
2024-03-28T05:07:56.623Z,50.00
2024-03-28T05:08:56.657Z,50.00
2024-03-28T05:09:56.665Z,50.00
2024-03-28T05:10:56.705Z,50.00
2024-03-28T05:11:56.962Z,50.00
2024-03-28T05:12:56.735Z,50.00
2024-03-28T05:13:56.766Z,52.46
2024-03-28T05:14:56.785Z,50.23
2024-03-28T05:15:56.822Z,51.16
2024-03-28T05:16:56.822Z,50.28
2024-03-28T05:17:56.845Z,54.56
2024-03-28T05:18:56.860Z,52.76
2024-03-28T05:19:56.870Z,58.81
2024-03-28T05:20:56.894Z,60.70
2024-03-28T05:21:56.964Z,62.72
2024-03-28T05:22:56.939Z,67.15
2024-03-28T05:23:56.957Z,73.32
2024-03-28T05:24:57.250Z,78.12
2024-03-28T05:25:56.991Z,80.66
2024-03-28T05:26:56.998Z,86.55
2024-03-28T05:27:57.020Z,92.68
2024-03-28T05:28:57.038Z,94.89
2024-03-28T05:29:57.043Z,94.74
2024-03-28T05:30:57.069Z,96.78
2024-03-28T05:31:57.069Z,93.99
2024-03-28T05:32:57.083Z,85.80
2024-03-28T05:33:59.905Z,75.76
2024-03-28T05:34:57.113Z,71.44
2024-03-28T05:35:57.128Z,69.89
2024-03-28T05:36:57.148Z,72.94
2024-03-28T05:37:57.186Z,77.78
2024-03-28T05:38:57.176Z,84.25
2024-03-28T05:39:57.204Z,91.32
2024-03-28T05:40:57.226Z,86.45
2024-03-28T05:41:57.221Z,80.83
2024-03-28T05:42:57.232Z,77.98
2024-03-28T05:43:57.248Z,74.03
2024-03-28T05:44:57.276Z,66.81
2024-03-28T05:45:57.279Z,64.50
2024-03-28T05:46:57.294Z,63.55
2024-03-28T05:47:57.308Z,62.24
2024-03-28T05:48:57.319Z,58.87
2024-03-28T05:49:57.336Z,55.98
2024-03-28T05:50:57.353Z,58.29
2024-03-28T05:51:57.361Z,60.32
2024-03-28T05:52:57.384Z,54.48
2024-03-28T05:53:57.380Z,57.56
2024-03-28T05:54:57.390Z,52.12
2024-03-28T05:55:57.401Z,54.96
2024-03-28T05:56:57.427Z,61.26
2024-03-28T05:57:57.426Z,70.73
2024-03-28T05:58:57.418Z,76.94
2024-03-28T05:59:57.429Z,88.19
2024-03-28T06:00:57.430Z,88.71
2024-03-28T06:01:57.437Z,92.87
2024-03-28T06:02:57.457Z,96.84
2024-03-28T06:03:57.508Z,96.20
2024-03-28T06:04:57.559Z,97.36
2024-03-28T06:05:57.617Z,101.86
2024-03-28T06:06:57.664Z,100.27
2024-03-28T06:07:57.719Z,103.37
2024-03-28T06:08:57.783Z,102.79
2024-03-28T06:09:57.849Z,105.28
2024-03-28T06:10:57.903Z,111.77
2024-03-28T06:11:57.973Z,124.76
2024-03-28T06:12:58.060Z,130.71
2024-03-28T06:13:58.099Z,130.85
2024-03-28T06:14:58.157Z,117.16
2024-03-28T06:15:58.201Z,109.15
2024-03-28T06:16:58.256Z,99.85
2024-03-28T06:17:58.309Z,98.98
2024-03-28T06:18:58.356Z,95.86
2024-03-28T06:19:58.459Z,88.28
2024-03-28T06:20:58.463Z,76.38
2024-03-28T06:21:58.515Z,64.98
2024-03-28T06:22:58.565Z,50.00
2024-03-28T06:23:58.594Z,49.89
2024-03-28T06:24:58.622Z,50.03
2024-03-28T06:25:58.672Z,52.69
2024-03-28T06:26:58.717Z,51.84
2024-03-28T06:27:58.762Z,55.07
2024-03-28T06:28:58.841Z,60.15
2024-03-28T06:29:58.845Z,65.00
2024-03-28T06:30:58.866Z,72.18
2024-03-28T06:31:58.905Z,72.88
2024-03-28T06:32:58.943Z,76.10
2024-03-28T06:33:58.990Z,80.71
2024-03-28T06:34:59.677Z,82.22
2024-03-28T06:35:59.108Z,86.35
2024-03-28T06:36:59.165Z,87.51
2024-03-28T06:37:59.231Z,87.40
2024-03-28T06:38:59.290Z,88.79
2024-03-28T06:39:59.347Z,92.78
2024-03-28T06:40:59.403Z,100.42
2024-03-28T06:41:59.414Z,104.21
2024-03-28T06:42:59.458Z,104.26
2024-03-28T06:43:59.491Z,101.86
2024-03-28T06:44:59.527Z,99.26
2024-03-28T06:45:59.538Z,94.50
2024-03-28T06:46:59.549Z,87.45
2024-03-28T06:47:59.538Z,78.66
2024-03-28T06:48:59.551Z,73.80
2024-03-28T06:49:59.573Z,70.10
2024-03-28T06:50:59.571Z,72.60
2024-03-28T06:51:59.563Z,69.44
2024-03-28T06:52:59.574Z,64.16
2024-03-28T06:53:59.590Z,64.84
2024-03-28T06:54:59.582Z,70.96
2024-03-28T06:55:59.587Z,76.76
2024-03-28T06:56:59.597Z,75.51
2024-03-28T06:57:59.609Z,75.97
2024-03-28T06:58:59.590Z,74.96
2024-03-28T06:59:59.610Z,73.76
2024-03-28T07:00:59.684Z,78.43
2024-03-28T07:01:59.710Z,95.40
2024-03-28T07:02:59.746Z,107.79
2024-03-28T07:03:59.769Z,120.51
2024-03-28T07:04:59.794Z,129.76
2024-03-28T07:06:00.668Z,141.88
2024-03-28T07:06:59.816Z,142.41
2024-03-28T07:07:59.814Z,146.49
2024-03-28T07:08:59.800Z,155.90
2024-03-28T07:09:59.793Z,172.07
2024-03-28T07:10:59.788Z,190.59
2024-03-28T07:11:59.776Z,200.00
2024-03-28T07:12:59.783Z,198.43
2024-03-28T07:14:00.296Z,197.15
2024-03-28T07:14:59.768Z,185.06
2024-03-28T07:15:59.756Z,179.83
2024-03-28T07:16:59.772Z,176.94
2024-03-28T07:17:59.767Z,175.62
2024-03-28T07:18:59.760Z,171.15
2024-03-28T07:19:59.761Z,161.14
2024-03-28T07:20:59.759Z,151.77
2024-03-28T07:21:59.760Z,140.38
2024-03-28T07:22:59.750Z,136.21
2024-03-28T07:23:59.751Z,126.72
2024-03-28T07:24:59.743Z,118.15
2024-03-28T07:25:59.752Z,111.58
2024-03-28T07:26:59.755Z,110.15
2024-03-28T07:27:59.752Z,101.64
2024-03-28T07:29:03.730Z,90.48
2024-03-28T07:29:59.768Z,90.50
2024-03-28T07:30:59.772Z,90.53
2024-03-28T07:31:59.821Z,91.92
2024-03-28T07:32:59.908Z,96.90
2024-03-28T07:33:59.876Z,104.37
2024-03-28T07:34:59.935Z,97.55
2024-03-28T07:35:59.970Z,96.25
2024-03-28T07:37:00.042Z,84.97
2024-03-28T07:38:00.800Z,81.59
2024-03-28T07:39:00.183Z,79.34
2024-03-28T07:40:00.263Z,81.18
2024-03-28T07:41:00.322Z,73.60
2024-03-28T07:42:00.410Z,69.21
2024-03-28T07:43:00.408Z,69.29
2024-03-28T07:44:00.445Z,75.98
2024-03-28T07:45:00.485Z,79.22
2024-03-28T07:46:00.516Z,85.87
2024-03-28T07:47:00.507Z,85.34
2024-03-28T07:48:00.570Z,80.52
2024-03-28T07:49:00.612Z,62.43
2024-03-28T07:50:00.624Z,47.29
2024-03-28T07:51:00.631Z,47.69
2024-03-28T07:52:00.646Z,50.09
2024-03-28T07:53:00.675Z,50.38
2024-03-28T07:54:00.665Z,50.00
2024-03-28T07:55:00.656Z,50.00
2024-03-28T07:56:00.652Z,50.75
2024-03-28T07:57:00.647Z,50.09
2024-03-28T07:58:00.625Z,51.44
2024-03-28T07:59:00.622Z,51.56
2024-03-28T08:00:00.659Z,56.69
2024-03-28T08:01:00.608Z,62.57
2024-03-28T08:02:00.582Z,62.27
2024-03-28T08:03:00.595Z,61.94
2024-03-28T08:04:00.601Z,55.93
2024-03-28T08:05:00.584Z,50.50
2024-03-28T08:06:00.528Z,51.04
2024-03-28T08:07:00.522Z,52.45
2024-03-28T08:08:00.490Z,52.35
2024-03-28T08:09:00.478Z,54.37
2024-03-28T08:10:00.488Z,62.06
2024-03-28T08:11:00.503Z,67.96
2024-03-28T08:12:00.511Z,70.62
2024-03-28T08:13:00.532Z,67.99
2024-03-28T08:14:00.554Z,69.72
2024-03-28T08:15:00.562Z,70.74
2024-03-28T08:16:00.595Z,74.29
2024-03-28T08:17:00.609Z,72.69
2024-03-28T08:18:00.657Z,76.49
2024-03-28T08:19:00.663Z,82.70
2024-03-28T08:20:00.655Z,85.80
2024-03-28T08:21:00.710Z,84.38
2024-03-28T08:22:00.663Z,87.19
2024-03-28T08:23:00.650Z,92.05
2024-03-28T08:24:00.621Z,89.08
2024-03-28T08:25:00.626Z,91.86
2024-03-28T08:26:00.572Z,84.49
2024-03-28T08:27:00.544Z,75.24
2024-03-28T08:28:00.507Z,76.11
2024-03-28T08:29:00.503Z,81.64
2024-03-28T08:30:00.518Z,93.30
2024-03-28T08:31:00.503Z,109.59
2024-03-28T08:32:00.476Z,115.92
2024-03-28T08:33:00.460Z,127.42
2024-03-28T08:34:00.424Z,129.78
2024-03-28T08:35:00.410Z,126.75
2024-03-28T08:36:00.337Z,118.46
2024-03-28T08:37:00.316Z,113.76
2024-03-28T08:38:00.258Z,105.45
2024-03-28T08:39:00.239Z,107.59
2024-03-28T08:40:00.204Z,103.27
2024-03-28T08:41:00.163Z,94.29
2024-03-28T08:42:00.101Z,89.13
2024-03-28T08:43:03.308Z,89.40
2024-03-28T08:43:59.995Z,82.88
2024-03-28T08:44:59.930Z,78.39
2024-03-28T08:45:59.887Z,71.95
2024-03-28T08:46:59.809Z,67.45
2024-03-28T08:47:59.754Z,64.48
2024-03-28T08:49:00.408Z,65.38
2024-03-28T08:49:59.619Z,69.25
2024-03-28T08:50:59.559Z,71.33
2024-03-28T08:51:59.498Z,72.79
2024-03-28T08:52:59.449Z,75.79
2024-03-28T08:53:59.346Z,75.22
2024-03-28T08:54:59.283Z,79.79
2024-03-28T08:55:59.209Z,89.68
2024-03-28T08:56:59.149Z,95.03
2024-03-28T08:57:59.127Z,100.13
2024-03-28T08:58:59.017Z,103.79
2024-03-28T08:59:58.986Z,109.05
2024-03-28T09:00:58.862Z,114.12
2024-03-28T09:01:58.790Z,130.39
2024-03-28T09:02:58.715Z,141.93
2024-03-28T09:03:58.632Z,158.48
2024-03-28T09:04:58.557Z,173.80
2024-03-28T09:05:58.529Z,180.59
2024-03-28T09:06:58.522Z,179.30
2024-03-28T09:07:58.495Z,178.69
2024-03-28T09:08:58.494Z,180.77
2024-03-28T09:09:58.430Z,177.63
2024-03-28T09:10:58.372Z,172.72
2024-03-28T09:11:58.327Z,165.79
2024-03-28T09:12:58.299Z,160.07
2024-03-28T09:13:58.250Z,158.48
2024-03-28T09:14:58.176Z,146.88
2024-03-28T09:15:58.167Z,138.74
2024-03-28T09:16:58.135Z,139.52
2024-03-28T09:17:58.137Z,138.97
2024-03-28T09:18:58.089Z,140.93
2024-03-28T09:19:58.063Z,139.66
2024-03-28T09:20:58.041Z,137.52
2024-03-28T09:21:58.011Z,139.59
2024-03-28T09:22:57.916Z,123.71
2024-03-28T09:23:57.846Z,106.80
2024-03-28T09:24:57.794Z,95.92
2024-03-28T09:25:57.710Z,90.44
2024-03-28T09:26:57.625Z,91.09
2024-03-28T09:27:57.566Z,94.18
2024-03-28T09:28:57.478Z,90.89
2024-03-28T09:29:57.396Z,100.87
2024-03-28T09:30:57.324Z,91.27
2024-03-28T09:31:57.256Z,71.17
2024-03-28T09:32:57.199Z,71.48
2024-03-28T09:33:57.173Z,72.51
2024-03-28T09:34:57.096Z,59.85
2024-03-28T09:35:57.059Z,49.60
2024-03-28T09:36:57.014Z,53.88
2024-03-28T09:37:56.965Z,45.45
2024-03-28T09:38:56.925Z,50.00
2024-03-28T09:39:57.591Z,40.62
2024-03-28T09:40:56.982Z,41.69
2024-03-28T09:41:56.922Z,45.64
2024-03-28T09:42:56.905Z,56.84
2024-03-28T09:43:56.829Z,51.27
2024-03-28T09:44:56.787Z,55.14
2024-03-28T09:45:56.740Z,48.24
2024-03-28T09:46:58.699Z,49.25
2024-03-28T09:47:59.881Z,53.37
2024-03-28T09:48:56.458Z,53.49
2024-03-28T09:49:56.345Z,52.54
2024-03-28T09:50:56.254Z,39.13
2024-03-28T09:51:56.248Z,38.83
2024-03-28T09:52:56.045Z,37.02
2024-03-28T09:53:55.932Z,43.01
2024-03-28T09:54:55.829Z,46.02
2024-03-28T09:55:55.710Z,49.49
2024-03-28T09:57:01.606Z,50.00
2024-03-28T09:57:55.537Z,50.01
2024-03-28T09:58:55.818Z,50.59
2024-03-28T09:59:55.296Z,53.73
2024-03-28T10:00:55.175Z,60.16
2024-03-28T10:01:55.060Z,59.99
2024-03-28T10:02:54.944Z,52.36
2024-03-28T10:03:54.853Z,53.05
2024-03-28T10:04:54.746Z,49.70
2024-03-28T10:05:54.632Z,54.93
2024-03-28T10:06:54.553Z,61.86
2024-03-28T10:07:54.450Z,67.13
2024-03-28T10:08:54.329Z,72.53
2024-03-28T10:09:54.244Z,75.08
2024-03-28T10:10:54.129Z,76.45
2024-03-28T10:11:54.050Z,83.14
2024-03-28T10:12:53.930Z,91.99
2024-03-28T10:13:53.851Z,95.45
2024-03-28T10:14:53.735Z,98.51
2024-03-28T10:15:53.663Z,102.90
2024-03-28T10:16:53.606Z,104.65
2024-03-28T10:17:53.450Z,107.78
2024-03-28T10:18:53.332Z,110.84
2024-03-28T10:19:53.267Z,109.10
2024-03-28T10:20:53.196Z,110.51
2024-03-28T10:21:53.167Z,114.27
2024-03-28T10:22:53.139Z,120.13
2024-03-28T10:23:53.062Z,120.97
2024-03-28T10:24:53.021Z,117.75
2024-03-28T10:25:52.989Z,111.50
2024-03-28T10:26:52.950Z,102.77
2024-03-28T10:27:52.888Z,102.49
2024-03-28T10:28:52.838Z,96.16
2024-03-28T10:29:52.875Z,89.47
2024-03-28T10:30:52.784Z,85.49
2024-03-28T10:31:52.748Z,82.44
2024-03-28T10:32:52.695Z,86.39
2024-03-28T10:33:52.674Z,88.70
2024-03-28T10:34:52.630Z,96.83
2024-03-28T10:35:52.579Z,101.09
2024-03-28T10:36:52.508Z,106.62
2024-03-28T10:37:56.760Z,111.21
2024-03-28T10:38:52.375Z,111.30
2024-03-28T10:39:52.287Z,111.44
2024-03-28T10:40:52.277Z,109.02
2024-03-28T10:41:52.134Z,103.77
2024-03-28T10:42:52.075Z,105.52
2024-03-28T10:43:51.998Z,107.63
2024-03-28T10:44:51.931Z,110.60
2024-03-28T10:45:51.876Z,95.12
2024-03-28T10:46:51.786Z,81.94
2024-03-28T10:47:51.700Z,71.92
2024-03-28T10:48:51.612Z,67.46
2024-03-28T10:49:51.665Z,80.08
2024-03-28T10:50:51.442Z,94.19
2024-03-28T10:51:51.657Z,97.02
2024-03-28T10:52:51.288Z,88.44
2024-03-28T10:53:51.210Z,85.55
2024-03-28T10:54:51.130Z,95.09
2024-03-28T10:55:51.049Z,95.37
2024-03-28T10:56:50.966Z,88.42
2024-03-28T10:57:50.898Z,79.41
2024-03-28T10:58:50.810Z,71.52
2024-03-28T10:59:50.732Z,66.77
2024-03-28T11:00:53.293Z,65.49
2024-03-28T11:01:50.560Z,65.51
2024-03-28T11:02:50.478Z,65.71
2024-03-28T11:03:50.370Z,61.34
2024-03-28T11:04:50.279Z,53.82
2024-03-28T11:05:50.188Z,51.57
2024-03-28T11:06:50.119Z,55.34
2024-03-28T11:07:50.012Z,52.92
2024-03-28T11:08:49.933Z,53.67
2024-03-28T11:09:49.822Z,51.21
2024-03-28T11:10:49.724Z,48.42
2024-03-28T11:11:49.636Z,50.00
2024-03-28T11:12:49.559Z,50.00
2024-03-28T11:13:51.323Z,53.76
2024-03-28T11:14:49.342Z,53.93
2024-03-28T11:15:49.254Z,54.42
2024-03-28T11:16:49.127Z,55.05
2024-03-28T11:17:49.046Z,58.73
2024-03-28T11:18:48.931Z,66.45
2024-03-28T11:19:48.838Z,74.13
2024-03-28T11:20:48.735Z,83.71
2024-03-28T11:21:48.612Z,87.55
2024-03-28T11:22:48.522Z,90.13
2024-03-28T11:23:48.408Z,91.55
2024-03-28T11:24:48.302Z,91.59
2024-03-28T11:25:48.206Z,90.37
2024-03-28T11:26:48.105Z,94.35
2024-03-28T11:27:48.001Z,94.92
2024-03-28T11:28:47.884Z,104.63
2024-03-28T11:29:47.792Z,109.45
2024-03-28T11:30:47.676Z,112.13
2024-03-28T11:31:47.560Z,106.77
2024-03-28T11:32:47.500Z,109.62
2024-03-28T11:33:47.441Z,108.28
2024-03-28T11:34:47.252Z,104.39
2024-03-28T11:35:47.122Z,102.97
2024-03-28T11:36:47.018Z,96.32
2024-03-28T11:37:46.925Z,88.22
2024-03-28T11:38:46.816Z,88.18
2024-03-28T11:39:46.710Z,91.56
2024-03-28T11:40:46.607Z,83.72
2024-03-28T11:41:46.504Z,65.77
2024-03-28T11:42:47.028Z,53.13
2024-03-28T11:43:46.343Z,55.27
2024-03-28T11:44:46.226Z,48.94
2024-03-28T11:45:46.170Z,49.99
2024-03-28T11:46:46.120Z,50.00
2024-03-28T11:47:46.063Z,52.84
2024-03-28T11:48:46.013Z,52.37
2024-03-28T11:49:45.968Z,51.05
2024-03-28T11:50:45.899Z,50.05
2024-03-28T11:51:45.847Z,51.42
2024-03-28T11:52:45.840Z,54.82
2024-03-28T11:53:56.847Z,56.76
2024-03-28T11:54:45.825Z,56.83
2024-03-28T11:55:45.811Z,57.09
2024-03-28T11:56:45.822Z,58.25
2024-03-28T11:57:45.808Z,60.77
2024-03-28T11:58:45.791Z,63.88
2024-03-28T11:59:45.797Z,65.38
2024-03-28T12:00:45.784Z,68.62
2024-03-28T12:01:45.804Z,70.02
2024-03-28T12:02:45.774Z,72.95
2024-03-28T12:03:45.768Z,75.00
2024-03-28T12:04:45.755Z,74.58
2024-03-28T12:05:45.782Z,75.43
2024-03-28T12:06:45.769Z,75.73
2024-03-28T12:07:45.801Z,74.26
2024-03-28T12:08:45.797Z,70.59
2024-03-28T12:09:45.809Z,69.31
2024-03-28T12:10:45.846Z,66.24
2024-03-28T12:11:45.830Z,64.88
2024-03-28T12:12:45.844Z,63.14
2024-03-28T12:13:45.875Z,60.56
2024-03-28T12:14:46.707Z,59.15
2024-03-28T12:15:45.878Z,57.14
2024-03-28T12:16:45.883Z,55.24
2024-03-28T12:17:45.914Z,54.95
2024-03-28T12:18:45.929Z,52.49
2024-03-28T12:19:45.956Z,50.12
2024-03-28T12:20:45.973Z,49.92
2024-03-28T12:21:46.018Z,50.00
2024-03-28T12:22:46.037Z,50.09
2024-03-28T12:23:46.046Z,50.51
2024-03-28T12:24:46.104Z,50.00
2024-03-28T12:25:46.096Z,50.00
2024-03-28T12:26:46.115Z,49.86
2024-03-28T12:27:46.155Z,50.84
2024-03-28T12:28:46.179Z,50.46
2024-03-28T12:29:46.218Z,50.42
2024-03-28T12:30:46.279Z,50.00
2024-03-28T12:31:46.370Z,50.46
2024-03-28T12:32:46.413Z,50.16
2024-03-28T12:33:46.518Z,50.00
2024-03-28T12:34:46.600Z,50.49
2024-03-28T12:35:46.645Z,50.00
2024-03-28T12:36:46.748Z,50.16
2024-03-28T12:37:46.828Z,50.31
2024-03-28T12:38:46.937Z,51.52
2024-03-28T12:39:47.001Z,50.79
2024-03-28T12:40:47.147Z,50.32
2024-03-28T12:41:47.183Z,50.00
2024-03-28T12:42:49.508Z,50.00
2024-03-28T12:43:47.283Z,50.01
2024-03-28T12:44:47.330Z,49.38
2024-03-28T12:45:47.381Z,50.07
2024-03-28T12:46:47.419Z,50.20
2024-03-28T12:47:47.453Z,50.37
2024-03-28T12:48:47.498Z,50.96
2024-03-28T12:49:47.630Z,50.93
2024-03-28T12:50:47.640Z,50.30
2024-03-28T12:51:47.663Z,50.00
2024-03-28T12:52:48.110Z,50.13
2024-03-28T12:53:47.833Z,50.63
2024-03-28T12:54:47.862Z,50.01
2024-03-28T12:55:47.932Z,50.23
2024-03-28T12:56:47.991Z,50.06
2024-03-28T12:57:48.083Z,50.01
2024-03-28T12:58:48.213Z,50.82
2024-03-28T12:59:48.262Z,50.32
2024-03-28T13:00:48.330Z,50.71
2024-03-28T13:01:48.420Z,50.00
2024-03-28T13:02:48.506Z,50.07
2024-03-28T13:03:48.563Z,50.03
2024-03-28T13:04:48.614Z,50.16
2024-03-28T13:05:48.690Z,51.01
2024-03-28T13:06:54.393Z,51.49
2024-03-28T13:07:48.870Z,51.52
2024-03-28T13:08:48.927Z,51.57
2024-03-28T13:09:49.036Z,50.74
2024-03-28T13:10:49.066Z,50.73
2024-03-28T13:11:51.263Z,50.86
2024-03-28T13:12:49.130Z,51.50
2024-03-28T13:13:49.165Z,51.50
2024-03-28T13:14:49.184Z,52.35
2024-03-28T13:15:49.213Z,53.01
2024-03-28T13:16:49.252Z,53.49
2024-03-28T13:17:49.295Z,52.60
2024-03-28T13:18:49.331Z,51.06
2024-03-28T13:19:49.368Z,50.79
2024-03-28T13:20:49.411Z,50.11
2024-03-28T13:21:49.451Z,50.00
2024-03-28T13:22:49.522Z,50.23
2024-03-28T13:23:49.529Z,50.57
2024-03-28T13:24:49.585Z,50.18
2024-03-28T13:26:01.328Z,50.02
2024-03-28T13:27:17.071Z,50.05
2024-03-28T13:27:49.719Z,50.13
2024-03-28T13:28:49.739Z,50.52
2024-03-28T13:29:49.820Z,51.16
2024-03-28T13:30:49.845Z,51.99